Time;durP1;ratioP1;P1;durP2;ratioP2;P2;SDS_P1;SDS_P2;PMS_P1;PMS_P2;Temp;Humidity;BMP_temperature;BMP_pressure;BME280_temperature;BME280_humidity;BME280_pressure;Samples;Min_cycle;Max_cycle;Signal;HPM_P1;HPM_P2
2021/01/25 00:01:00;;;;;;;0.20;0.20;;;;;;;;;;5002919;28;20480;-78
2021/01/25 00:03:26;;;;;;;0.20;0.20;;;;;;;;;;4984494;28;20259;-77
2021/01/25 00:05:53;;;;;;;0.30;0.30;;;;;;;;;;4984057;28;20272;-78
2021/01/25 00:08:20;;;;;;;0.20;0.20;;;;;;;;;;4978281;28;20202;-77
2021/01/25 00:10:46;;;;;;;0.23;0.23;;;;;;;;;;4973943;28;20197;-77
2021/01/25 00:13:12;;;;;;;0.20;0.20;;;;;;;;;;4974712;28;20232;-77
2021/01/25 00:15:39;;;;;;;0.20;0.20;;;;;;;;;;4993092;28;20399;-77
2021/01/25 00:18:06;;;;;;;0.20;0.20;;;;;;;;;;4966479;28;20203;-77
2021/01/25 00:20:33;;;;;;;0.20;0.20;;;;;;;;;;4963557;28;20225;-76
2021/01/25 00:22:59;;;;;;;0.30;0.30;;;;;;;;;;4979380;28;20229;-78
2021/01/25 00:25:26;;;;;;;0.20;0.20;;;;;;;;;;4967881;28;20522;-77
2021/01/25 00:27:52;;;;;;;0.27;0.27;;;;;;;;;;4986104;28;20202;-77
2021/01/25 00:30:19;;;;;;;0.20;0.20;;;;;;;;;;4970794;28;20269;-77
2021/01/25 00:32:46;;;;;;;0.20;0.20;;;;;;;;;;4970769;28;20241;-79
2021/01/25 00:35:14;;;;;;;0.20;0.20;;;;;;;;;;4987675;28;20221;-77
2021/01/25 00:37:40;;;;;;;0.20;0.20;;;;;;;;;;4971771;28;20206;-76
2021/01/25 00:40:07;;;;;;;0.20;0.20;;;;;;;;;;4988867;28;20288;-78
2021/01/25 00:42:34;;;;;;;0.20;0.20;;;;;;;;;;4971260;28;20201;-78
2021/01/25 00:45:00;;;;;;;0.27;0.27;;;;;;;;;;4970203;28;20400;-78
2021/01/25 00:47:27;;;;;;;0.23;0.23;;;;;;;;;;4971169;28;20559;-78
2021/01/25 00:49:53;;;;;;;0.20;0.20;;;;;;;;;;4973297;28;20313;-77
2021/01/25 00:52:21;;;;;;;0.20;0.20;;;;;;;;;;4970903;28;20231;-77
2021/01/25 00:54:47;;;;;;;0.20;0.20;;;;;;;;;;4970386;28;20209;-79
2021/01/25 00:57:14;;;;;;;0.20;0.20;;;;;;;;;;4970795;28;20225;-77
2021/01/25 00:59:42;;;;;;;0.20;0.20;;;;;;;;;;4970962;28;20222;-77
2021/01/25 01:02:08;;;;;;;1.37;1.37;;;;;;;;;;4964458;28;20292;-77
2021/01/25 01:04:35;;;;;;;0.30;0.30;;;;;;;;;;4989417;28;20244;-79
2021/01/25 01:07:01;;;;;;;0.23;0.23;;;;;;;;;;4970283;28;20535;-79
2021/01/25 01:09:28;;;;;;;0.20;0.20;;;;;;;;;;4972139;28;20194;-77
2021/01/25 01:11:56;;;;;;;0.23;0.23;;;;;;;;;;4989067;28;20202;-77
2021/01/25 01:14:22;;;;;;;0.20;0.20;;;;;;;;;;4989100;28;20206;-77
2021/01/25 01:16:49;;;;;;;0.20;0.20;;;;;;;;;;4971035;28;20205;-77
2021/01/25 01:19:16;;;;;;;0.20;0.20;;;;;;;;;;4975900;28;20624;-77
2021/01/25 01:21:42;;;;;;;0.20;0.20;;;;;;;;;;4970727;28;20199;-77
2021/01/25 01:24:09;;;;;;;0.20;0.20;;;;;;;;;;4969045;28;20234;-77
2021/01/25 01:26:36;;;;;;;0.20;0.20;;;;;;;;;;4985897;28;20457;-77
2021/01/25 01:29:03;;;;;;;0.20;0.20;;;;;;;;;;4980205;28;20224;-77
2021/01/25 01:31:29;;;;;;;0.20;0.20;;;;;;;;;;4997532;28;20198;-79
2021/01/25 01:33:55;;;;;;;0.20;0.20;;;;;;;;;;4996130;28;20208;-78
2021/01/25 01:36:22;;;;;;;0.20;0.20;;;;;;;;;;4996636;28;20206;-77
2021/01/25 01:38:48;;;;;;;0.20;0.20;;;;;;;;;;4966298;28;20198;-77
2021/01/25 01:41:15;;;;;;;0.20;0.20;;;;;;;;;;4970342;28;20284;-77
2021/01/25 01:43:42;;;;;;;0.20;0.20;;;;;;;;;;4994015;28;20512;-76
2021/01/25 01:46:08;;;;;;;0.20;0.20;;;;;;;;;;4994379;28;20210;-76
2021/01/25 01:48:34;;;;;;;0.20;0.20;;;;;;;;;;5009714;28;20217;-77
2021/01/25 01:51:01;;;;;;;0.20;0.20;;;;;;;;;;4970917;28;20456;-77
2021/01/25 01:53:27;;;;;;;0.20;0.20;;;;;;;;;;4967646;28;20234;-79
2021/01/25 01:55:53;;;;;;;0.20;0.20;;;;;;;;;;4962730;28;20439;-76
2021/01/25 01:58:20;;;;;;;0.20;0.20;;;;;;;;;;5010236;28;20230;-77
2021/01/25 02:00:47;;;;;;;0.27;0.27;;;;;;;;;;4996416;28;20229;-77
2021/01/25 02:03:14;;;;;;;0.20;0.20;;;;;;;;;;4980937;28;20288;-77
2021/01/25 02:05:41;;;;;;;0.20;0.20;;;;;;;;;;4969815;28;20230;-77
2021/01/25 02:08:08;;;;;;;0.20;0.20;;;;;;;;;;4971719;28;20273;-77
2021/01/25 02:10:35;;;;;;;0.20;0.20;;;;;;;;;;4976333;28;20197;-78
2021/01/25 02:13:02;;;;;;;0.30;0.30;;;;;;;;;;4976867;28;20213;-77
2021/01/25 02:15:29;;;;;;;0.20;0.20;;;;;;;;;;4990706;28;20245;-78
2021/01/25 02:17:57;;;;;;;0.20;0.20;;;;;;;;;;4959756;28;20202;-79
2021/01/25 02:20:25;;;;;;;0.20;0.20;;;;;;;;;;4966261;28;20248;-74
2021/01/25 02:23:06;;;;;;;0.20;0.20;;;;;;;;;;4975038;28;20232;-77
2021/01/25 02:25:38;;;;;;;0.20;0.20;;;;;;;;;;4994101;28;20342;-76
2021/01/25 02:28:06;;;;;;;0.20;0.20;;;;;;;;;;4967601;28;20199;-77
2021/01/25 02:30:32;;;;;;;0.27;0.27;;;;;;;;;;4966597;28;20237;-77
2021/01/25 02:32:59;;;;;;;0.20;0.20;;;;;;;;;;4968762;28;20214;-77
2021/01/25 02:35:27;;;;;;;6.93;6.30;;;;;;;;;;4987385;28;20241;-77
2021/01/25 02:37:55;;;;;;;0.23;0.23;;;;;;;;;;4971710;28;20397;-77
2021/01/25 02:40:22;;;;;;;0.20;0.20;;;;;;;;;;4976587;28;20547;-76
2021/01/25 02:42:50;;;;;;;0.20;0.20;;;;;;;;;;4983014;28;20212;-78
2021/01/25 02:45:18;;;;;;;0.20;0.20;;;;;;;;;;4987502;28;20198;-77
2021/01/25 02:47:45;;;;;;;0.20;0.20;;;;;;;;;;4968822;28;20473;-77
2021/01/25 02:50:12;;;;;;;0.20;0.20;;;;;;;;;;4971306;28;20201;-77
2021/01/25 02:52:38;;;;;;;0.20;0.20;;;;;;;;;;4969132;28;20585;-77
2021/01/25 02:55:05;;;;;;;0.20;0.20;;;;;;;;;;4968706;28;20206;-77
2021/01/25 02:57:34;;;;;;;0.20;0.20;;;;;;;;;;4986258;28;20273;-77
2021/01/25 03:00:01;;;;;;;0.20;0.20;;;;;;;;;;4971214;28;20281;-78
2021/01/25 03:02:28;;;;;;;0.20;0.20;;;;;;;;;;4971624;28;20392;-77
2021/01/25 03:04:55;;;;;;;0.40;0.40;;;;;;;;;;4969358;28;20228;-78
2021/01/25 03:07:22;;;;;;;0.20;0.20;;;;;;;;;;4969923;28;20202;-77
2021/01/25 03:09:48;;;;;;;0.20;0.20;;;;;;;;;;4985713;28;20202;-77
2021/01/25 03:12:16;;;;;;;0.23;0.23;;;;;;;;;;4969349;28;20202;-78
2021/01/25 03:14:43;;;;;;;0.20;0.20;;;;;;;;;;4986538;28;20475;-77
2021/01/25 03:17:09;;;;;;;0.27;0.27;;;;;;;;;;4969679;28;20425;-77
2021/01/25 03:19:36;;;;;;;0.20;0.20;;;;;;;;;;4958092;28;20249;-77
2021/01/25 03:22:03;;;;;;;0.93;0.93;;;;;;;;;;4986730;28;20229;-76
2021/01/25 03:24:29;;;;;;;0.30;0.30;;;;;;;;;;4969923;28;20209;-77
2021/01/25 03:26:56;;;;;;;1.40;1.40;;;;;;;;;;4968080;28;20202;-78
2021/01/25 03:29:22;;;;;;;0.20;0.20;;;;;;;;;;4968558;28;20194;-77
2021/01/25 03:31:49;;;;;;;0.23;0.23;;;;;;;;;;4969079;28;20209;-77
2021/01/25 03:34:15;;;;;;;0.40;0.40;;;;;;;;;;4988352;28;20519;-77
2021/01/25 03:36:42;;;;;;;0.20;0.20;;;;;;;;;;4966898;28;20240;-78
2021/01/25 03:39:08;;;;;;;0.20;0.20;;;;;;;;;;4997294;28;20272;-77
2021/01/25 03:41:35;;;;;;;0.20;0.20;;;;;;;;;;4973608;28;20322;-77
2021/01/25 03:44:02;;;;;;;3.10;1.40;;;;;;;;;;4983919;28;20500;-77
2021/01/25 03:46:28;;;;;;;0.20;0.20;;;;;;;;;;4969322;28;20236;-78
2021/01/25 03:48:55;;;;;;;0.20;0.20;;;;;;;;;;4972208;28;20212;-78
2021/01/25 03:51:21;;;;;;;0.30;0.30;;;;;;;;;;4972837;28;20204;-77
2021/01/25 03:53:48;;;;;;;0.60;0.60;;;;;;;;;;4984737;28;20206;-78
2021/01/25 03:56:14;;;;;;;0.20;0.20;;;;;;;;;;4986516;28;20202;-77
2021/01/25 03:58:41;;;;;;;0.30;0.30;;;;;;;;;;4985688;28;20272;-77
2021/01/25 04:01:08;;;;;;;0.20;0.20;;;;;;;;;;4967596;28;20222;-77
2021/01/25 04:03:34;;;;;;;0.20;0.20;;;;;;;;;;4965810;28;20500;-77
2021/01/25 04:06:00;;;;;;;0.30;0.30;;;;;;;;;;4985258;28;20198;-77
2021/01/25 04:08:27;;;;;;;0.20;0.20;;;;;;;;;;4965199;28;20209;-78
2021/01/25 04:10:54;;;;;;;0.20;0.20;;;;;;;;;;4986291;28;20221;-78
2021/01/25 04:13:20;;;;;;;0.20;0.20;;;;;;;;;;4984783;28;20240;-77
2021/01/25 04:15:47;;;;;;;0.30;0.30;;;;;;;;;;4970562;28;20233;-78
2021/01/25 04:18:13;;;;;;;0.30;0.30;;;;;;;;;;4963433;28;20206;-77
2021/01/25 04:20:39;;;;;;;0.30;0.30;;;;;;;;;;4982283;28;20224;-78
2021/01/25 04:23:06;;;;;;;0.30;0.30;;;;;;;;;;4963085;28;20519;-78
2021/01/25 04:25:32;;;;;;;0.20;0.20;;;;;;;;;;4964798;28;20224;-79
2021/01/25 04:27:59;;;;;;;0.30;0.30;;;;;;;;;;4968261;28;20237;-78
2021/01/25 04:30:26;;;;;;;0.30;0.30;;;;;;;;;;4973208;28;20616;-77
2021/01/25 04:32:53;;;;;;;0.20;0.20;;;;;;;;;;4966986;28;20197;-78
2021/01/25 04:35:19;;;;;;;0.20;0.20;;;;;;;;;;4963926;28;20523;-78
2021/01/25 04:37:45;;;;;;;0.20;0.20;;;;;;;;;;4983210;28;20287;-77
2021/01/25 04:40:12;;;;;;;0.30;0.30;;;;;;;;;;4965525;28;20222;-78
2021/01/25 04:42:39;;;;;;;0.20;0.20;;;;;;;;;;4981566;28;20206;-77
2021/01/25 04:45:07;;;;;;;0.20;0.20;;;;;;;;;;4982958;28;20209;-78
2021/01/25 04:47:34;;;;;;;0.20;0.20;;;;;;;;;;5003997;28;20221;-77
2021/01/25 04:50:01;;;;;;;0.20;0.20;;;;;;;;;;4966691;28;20226;-77
2021/01/25 04:52:27;;;;;;;0.20;0.20;;;;;;;;;;4964946;28;20274;-77
2021/01/25 04:54:54;;;;;;;0.30;0.30;;;;;;;;;;4968627;28;20232;-77
2021/01/25 04:57:21;;;;;;;0.20;0.20;;;;;;;;;;4985781;28;20460;-78
2021/01/25 04:59:48;;;;;;;0.20;0.20;;;;;;;;;;4966522;28;20302;-78
2021/01/25 05:02:16;;;;;;;0.20;0.20;;;;;;;;;;4969677;28;20202;-78
2021/01/25 05:04:42;;;;;;;0.20;0.20;;;;;;;;;;4960233;28;20410;-78
2021/01/25 05:07:08;;;;;;;0.33;0.33;;;;;;;;;;5003279;28;20201;-78
2021/01/25 05:09:34;;;;;;;0.30;0.30;;;;;;;;;;4984473;28;20198;-77
2021/01/25 05:12:02;;;;;;;0.20;0.20;;;;;;;;;;4982854;28;20561;-78
2021/01/25 05:14:36;;;;;;;0.27;0.27;;;;;;;;;;4984625;28;20198;-77
2021/01/25 05:17:05;;;;;;;0.20;0.20;;;;;;;;;;4987229;28;20201;-78
2021/01/25 05:19:32;;;;;;;0.20;0.20;;;;;;;;;;4988491;28;20229;-78
2021/01/25 05:21:59;;;;;;;0.20;0.20;;;;;;;;;;4969697;28;20274;-77
2021/01/25 05:24:25;;;;;;;0.20;0.20;;;;;;;;;;4966989;28;20238;-78
2021/01/25 05:26:52;;;;;;;0.20;0.20;;;;;;;;;;4971494;28;20202;-77
2021/01/25 05:29:22;;;;;;;0.20;0.20;;;;;;;;;;4987851;28;20221;-77
2021/01/25 05:31:49;;;;;;;0.20;0.20;;;;;;;;;;4987328;28;20281;-77
2021/01/25 05:34:17;;;;;;;0.30;0.30;;;;;;;;;;4988695;28;20224;-77
2021/01/25 05:36:44;;;;;;;0.20;0.20;;;;;;;;;;4969559;28;20298;-77
2021/01/25 05:39:13;;;;;;;0.30;0.30;;;;;;;;;;4968067;28;20207;-77
2021/01/25 05:41:39;;;;;;;0.20;0.20;;;;;;;;;;4996012;28;20225;-77
2021/01/25 05:44:13;;;;;;;0.20;0.20;;;;;;;;;;4971476;28;20202;-77
2021/01/25 05:46:40;;;;;;;0.20;0.20;;;;;;;;;;4983133;28;20206;-77
2021/01/25 05:49:06;;;;;;;0.20;0.20;;;;;;;;;;4969733;28;20209;-77
2021/01/25 05:51:33;;;;;;;0.20;0.20;;;;;;;;;;4969291;28;20213;-78
2021/01/25 05:54:01;;;;;;;0.20;0.20;;;;;;;;;;4962043;28;20209;-78
2021/01/25 05:56:28;;;;;;;0.20;0.20;;;;;;;;;;4995775;28;20205;-78
2021/01/25 05:58:54;;;;;;;0.20;0.20;;;;;;;;;;4985999;28;20198;-77
2021/01/25 06:01:22;;;;;;;0.33;0.33;;;;;;;;;;4989556;28;20233;-79
2021/01/25 06:03:48;;;;;;;0.20;0.20;;;;;;;;;;4985846;28;20288;-77
2021/01/25 06:06:18;;;;;;;0.20;0.20;;;;;;;;;;4987240;28;20209;-77
2021/01/25 06:08:51;;;;;;;0.30;0.30;;;;;;;;;;4987133;28;20252;-77
2021/01/25 06:11:19;;;;;;;0.60;0.60;;;;;;;;;;4987971;28;20201;-77
2021/01/25 06:13:52;;;;;;;0.20;0.20;;;;;;;;;;5002172;28;20206;-78
2021/01/25 06:16:20;;;;;;;0.20;0.20;;;;;;;;;;4984563;28;20203;-77
2021/01/25 06:18:47;;;;;;;0.20;0.20;;;;;;;;;;4987070;28;20229;-77
2021/01/25 06:21:14;;;;;;;1.03;1.03;;;;;;;;;;4968334;28;20362;-78
2021/01/25 06:23:41;;;;;;;0.20;0.20;;;;;;;;;;4987054;28;20295;-77
2021/01/25 06:26:08;;;;;;;0.20;0.20;;;;;;;;;;4970067;28;20202;-77
2021/01/25 06:28:35;;;;;;;0.20;0.20;;;;;;;;;;4967966;28;20249;-78
2021/01/25 06:31:02;;;;;;;0.20;0.20;;;;;;;;;;4986161;28;20198;-78
2021/01/25 06:33:34;;;;;;;0.20;0.20;;;;;;;;;;4969160;28;20236;-80
2021/01/25 06:36:01;;;;;;;0.20;0.20;;;;;;;;;;4987411;28;20202;-78
2021/01/25 06:38:27;;;;;;;0.30;0.30;;;;;;;;;;4970068;28;20234;-78
2021/01/25 06:40:53;;;;;;;0.20;0.20;;;;;;;;;;4985835;28;20246;-79
2021/01/25 06:43:20;;;;;;;0.20;0.20;;;;;;;;;;4968858;28;20207;-77
2021/01/25 06:45:48;;;;;;;0.30;0.30;;;;;;;;;;4969385;28;20221;-77
2021/01/25 06:48:16;;;;;;;0.30;0.30;;;;;;;;;;4984785;28;20404;-77
2021/01/25 06:50:43;;;;;;;0.20;0.20;;;;;;;;;;4970003;28;20232;-77
2021/01/25 06:53:10;;;;;;;0.20;0.20;;;;;;;;;;4985996;28;20225;-77
2021/01/25 06:55:40;;;;;;;0.20;0.20;;;;;;;;;;4964684;28;20524;-77
2021/01/25 06:58:06;;;;;;;0.30;0.30;;;;;;;;;;4983926;28;20191;-77
2021/01/25 07:00:32;;;;;;;0.30;0.30;;;;;;;;;;4986898;28;20497;-78
2021/01/25 07:03:02;;;;;;;0.20;0.20;;;;;;;;;;4979306;28;20210;-78
2021/01/25 07:05:29;;;;;;;0.20;0.20;;;;;;;;;;4986323;28;20228;-77
2021/01/25 07:08:14;;;;;;;0.57;0.57;;;;;;;;;;4968074;28;20224;-78
2021/01/25 07:10:47;;;;;;;0.20;0.20;;;;;;;;;;4985358;28;20501;-75
2021/01/25 07:13:14;;;;;;;0.20;0.20;;;;;;;;;;4986555;28;20202;-76
2021/01/25 07:15:40;;;;;;;0.20;0.20;;;;;;;;;;4967281;28;20336;-76
2021/01/25 07:18:08;;;;;;;0.20;0.20;;;;;;;;;;4963286;28;20202;-74
2021/01/25 07:20:35;;;;;;;0.20;0.20;;;;;;;;;;4966705;28;20341;-74
2021/01/25 07:23:03;;;;;;;0.20;0.20;;;;;;;;;;4969253;28;20265;-74
2021/01/25 07:25:29;;;;;;;0.30;0.30;;;;;;;;;;4984927;28;20202;-75
2021/01/25 07:28:01;;;;;;;0.70;0.70;;;;;;;;;;4963837;28;20312;-74
2021/01/25 07:30:30;;;;;;;0.20;0.20;;;;;;;;;;4980730;28;20202;-66
2021/01/25 07:32:57;;;;;;;0.20;0.20;;;;;;;;;;4969550;28;20258;-68
2021/01/25 07:35:27;;;;;;;0.20;0.20;;;;;;;;;;4972571;28;20209;-67
2021/01/25 07:37:54;;;;;;;0.20;0.20;;;;;;;;;;4983319;28;20305;-67
2021/01/25 07:40:22;;;;;;;0.20;0.20;;;;;;;;;;4972417;28;20264;-66
2021/01/25 07:42:48;;;;;;;0.20;0.20;;;;;;;;;;4983165;28;20498;-65
2021/01/25 07:45:15;;;;;;;0.30;0.30;;;;;;;;;;4965048;28;20209;-67
2021/01/25 07:47:44;;;;;;;0.20;0.20;;;;;;;;;;4962270;28;20202;-66
2021/01/25 07:50:11;;;;;;;0.20;0.20;;;;;;;;;;4985718;28;20445;-65
2021/01/25 07:52:38;;;;;;;0.20;0.20;;;;;;;;;;4969368;28;20431;-65
2021/01/25 07:55:11;;;;;;;0.30;0.30;;;;;;;;;;4956426;28;20209;-64
2021/01/25 07:57:38;;;;;;;0.27;0.27;;;;;;;;;;4986243;28;20197;-66
2021/01/25 08:00:14;;;;;;;0.20;0.20;;;;;;;;;;4968213;28;20476;-66
2021/01/25 08:02:40;;;;;;;0.20;0.20;;;;;;;;;;4989079;28;20205;-74
2021/01/25 08:05:07;;;;;;;0.20;0.20;;;;;;;;;;4984798;28;20202;-75
2021/01/25 08:07:34;;;;;;;0.20;0.20;;;;;;;;;;4969704;28;20198;-75
2021/01/25 08:10:01;;;;;;;0.20;0.20;;;;;;;;;;4967454;28;20237;-75
2021/01/25 08:12:28;;;;;;;0.20;0.20;;;;;;;;;;4986321;28;20209;-74
2021/01/25 08:15:00;;;;;;;0.20;0.20;;;;;;;;;;4985121;28;20202;-74
2021/01/25 08:17:29;;;;;;;0.20;0.20;;;;;;;;;;4985122;28;20206;-76
2021/01/25 08:19:57;;;;;;;0.20;0.20;;;;;;;;;;4986682;28;20220;-75
2021/01/25 08:22:26;;;;;;;0.20;0.20;;;;;;;;;;4984979;28;20238;-77
2021/01/25 08:24:53;;;;;;;0.20;0.20;;;;;;;;;;4984415;28;20220;-75
2021/01/25 08:27:20;;;;;;;0.20;0.20;;;;;;;;;;4965509;28;20421;-75
2021/01/25 08:29:47;;;;;;;0.20;0.20;;;;;;;;;;4966975;28;20393;-75
2021/01/25 08:32:21;;;;;;;0.20;0.20;;;;;;;;;;4984875;28;20209;-76
2021/01/25 08:34:56;;;;;;;0.20;0.20;;;;;;;;;;4978340;28;20209;-75
2021/01/25 08:37:26;;;;;;;0.20;0.20;;;;;;;;;;4984502;28;20508;-75
2021/01/25 08:39:53;;;;;;;0.20;0.20;;;;;;;;;;4984010;28;20212;-75
2021/01/25 08:42:21;;;;;;;0.20;0.20;;;;;;;;;;4985260;28;20206;-76
2021/01/25 08:44:49;;;;;;;0.20;0.20;;;;;;;;;;4985340;28;20209;-75
2021/01/25 08:47:18;;;;;;;0.20;0.20;;;;;;;;;;4986009;28;20202;-75
2021/01/25 08:49:45;;;;;;;0.20;0.20;;;;;;;;;;4972486;28;20205;-77
2021/01/25 08:52:23;;;;;;;0.20;0.20;;;;;;;;;;4988386;28;20198;-76
2021/01/25 08:54:50;;;;;;;0.20;0.20;;;;;;;;;;4989545;28;20202;-75
2021/01/25 08:57:17;;;;;;;0.20;0.20;;;;;;;;;;4983455;28;20234;-74
2021/01/25 08:59:44;;;;;;;0.20;0.20;;;;;;;;;;4987406;28;20205;-76
2021/01/25 09:02:12;;;;;;;0.20;0.20;;;;;;;;;;5006379;28;20214;-75
2021/01/25 09:04:40;;;;;;;0.20;0.20;;;;;;;;;;4966144;28;20213;-74
2021/01/25 09:07:11;;;;;;;0.30;0.30;;;;;;;;;;4966955;28;20209;-75
2021/01/25 09:09:38;;;;;;;0.20;0.20;;;;;;;;;;4987859;28;20430;-76
2021/01/25 09:12:06;;;;;;;0.20;0.20;;;;;;;;;;4966047;28;20214;-75
2021/01/25 09:14:33;;;;;;;0.20;0.20;;;;;;;;;;4986885;28;20202;-75
2021/01/25 09:17:00;;;;;;;0.20;0.20;;;;;;;;;;4962424;28;20552;-76
2021/01/25 09:19:27;;;;;;;0.20;0.20;;;;;;;;;;4962485;28;20354;-74
2021/01/25 09:21:54;;;;;;;0.20;0.20;;;;;;;;;;4966430;28;20219;-76
2021/01/25 09:24:21;;;;;;;0.30;0.30;;;;;;;;;;4967931;28;20233;-76
2021/01/25 09:26:48;;;;;;;0.20;0.20;;;;;;;;;;4966929;28;20202;-74
2021/01/25 09:29:15;;;;;;;0.20;0.20;;;;;;;;;;4982636;28;20366;-77
2021/01/25 09:31:42;;;;;;;0.20;0.20;;;;;;;;;;4968966;28;20198;-75
2021/01/25 09:34:08;;;;;;;0.20;0.20;;;;;;;;;;4962934;28;20544;-74
2021/01/25 09:36:35;;;;;;;0.20;0.20;;;;;;;;;;4983076;28;20202;-75
2021/01/25 09:39:03;;;;;;;0.20;0.20;;;;;;;;;;4967694;28;20202;-76
2021/01/25 09:41:31;;;;;;;0.20;0.20;;;;;;;;;;4978023;28;20297;-76
2021/01/25 09:43:57;;;;;;;0.20;0.20;;;;;;;;;;4983226;28;20277;-75
2021/01/25 09:46:24;;;;;;;0.30;0.30;;;;;;;;;;4969870;28;20445;-76
2021/01/25 09:48:51;;;;;;;0.40;0.40;;;;;;;;;;4965825;28;20527;-73
2021/01/25 09:51:18;;;;;;;0.20;0.20;;;;;;;;;;4962916;28;20210;-74
2021/01/25 09:53:44;;;;;;;0.30;0.30;;;;;;;;;;4966912;28;20260;-74
2021/01/25 09:56:12;;;;;;;0.20;0.20;;;;;;;;;;4982069;28;20282;-74
2021/01/25 09:58:39;;;;;;;0.20;0.20;;;;;;;;;;4962886;28;20206;-74
2021/01/25 10:01:06;;;;;;;0.20;0.20;;;;;;;;;;4967152;28;20222;-75
2021/01/25 10:03:33;;;;;;;0.20;0.20;;;;;;;;;;4963146;28;20202;-74
2021/01/25 10:05:59;;;;;;;0.20;0.20;;;;;;;;;;4985382;28;20382;-75
2021/01/25 10:08:26;;;;;;;0.20;0.20;;;;;;;;;;4968496;28;20201;-75
2021/01/25 10:10:53;;;;;;;0.20;0.20;;;;;;;;;;4969212;28;20559;-72
2021/01/25 10:13:21;;;;;;;0.20;0.20;;;;;;;;;;4966778;28;20214;-75
2021/01/25 10:15:48;;;;;;;0.20;0.20;;;;;;;;;;4985337;28;20205;-75
2021/01/25 10:18:14;;;;;;;0.20;0.20;;;;;;;;;;4964889;28;20206;-75
2021/01/25 10:20:43;;;;;;;0.20;0.20;;;;;;;;;;4982750;28;20251;-77
2021/01/25 10:23:09;;;;;;;0.20;0.20;;;;;;;;;;5002706;28;20253;-75
2021/01/25 10:25:35;;;;;;;0.20;0.20;;;;;;;;;;5001685;28;20301;-73
2021/01/25 10:28:02;;;;;;;0.20;0.20;;;;;;;;;;4984731;28;20214;-76
2021/01/25 10:30:29;;;;;;;0.20;0.20;;;;;;;;;;4984309;28;20202;-76
2021/01/25 10:32:56;;;;;;;0.20;0.20;;;;;;;;;;4960324;28;20209;-76
2021/01/25 10:35:23;;;;;;;0.20;0.20;;;;;;;;;;4981645;28;20202;-73
2021/01/25 10:37:50;;;;;;;0.20;0.20;;;;;;;;;;4994891;28;20517;-73
2021/01/25 10:40:18;;;;;;;0.20;0.20;;;;;;;;;;4963163;28;20517;-75
2021/01/25 10:42:44;;;;;;;0.20;0.20;;;;;;;;;;4980799;28;20254;-75
2021/01/25 10:45:11;;;;;;;0.20;0.20;;;;;;;;;;4966559;28;20209;-77
2021/01/25 10:47:39;;;;;;;0.20;0.20;;;;;;;;;;4983389;28;20263;-75
2021/01/25 10:50:11;;;;;;;0.20;0.20;;;;;;;;;;4967204;28;20198;-75
2021/01/25 10:52:38;;;;;;;0.30;0.30;;;;;;;;;;4984710;28;20270;-78
2021/01/25 10:55:06;;;;;;;0.20;0.20;;;;;;;;;;4967213;28;20198;-79
2021/01/25 10:57:33;;;;;;;0.20;0.20;;;;;;;;;;4973851;28;20402;-78
2021/01/25 11:00:00;;;;;;;0.20;0.20;;;;;;;;;;4984197;28;20198;-77
2021/01/25 11:02:27;;;;;;;0.20;0.20;;;;;;;;;;4997480;28;20319;-76
2021/01/25 11:04:54;;;;;;;0.20;0.20;;;;;;;;;;4963395;28;20244;-76
2021/01/25 11:07:21;;;;;;;0.20;0.20;;;;;;;;;;4963595;28;20225;-76
2021/01/25 11:09:48;;;;;;;0.20;0.20;;;;;;;;;;4961826;28;20289;-76
2021/01/25 11:12:14;;;;;;;0.20;0.20;;;;;;;;;;4963704;28;20205;-76
2021/01/25 11:14:41;;;;;;;0.20;0.20;;;;;;;;;;4979423;28;20202;-78
2021/01/25 11:17:07;;;;;;;0.20;0.20;;;;;;;;;;4962239;28;20257;-76
2021/01/25 11:19:34;;;;;;;0.20;0.20;;;;;;;;;;4984794;28;20259;-76
2021/01/25 11:22:02;;;;;;;0.20;0.20;;;;;;;;;;4959474;28;20241;-78
2021/01/25 11:24:28;;;;;;;0.20;0.20;;;;;;;;;;4962503;28;20401;-76
2021/01/25 11:26:55;;;;;;;0.20;0.20;;;;;;;;;;4982479;28;20497;-78
2021/01/25 11:29:23;;;;;;;0.20;0.20;;;;;;;;;;4962218;28;20351;-78
2021/01/25 11:31:49;;;;;;;0.20;0.20;;;;;;;;;;4988804;28;20245;-76
2021/01/25 11:34:16;;;;;;;0.20;0.20;;;;;;;;;;4983062;28;20229;-78
2021/01/25 11:36:42;;;;;;;0.20;0.20;;;;;;;;;;4974107;28;20202;-78
2021/01/25 11:39:10;;;;;;;0.20;0.20;;;;;;;;;;4984585;28;20210;-78
2021/01/25 11:41:37;;;;;;;0.20;0.20;;;;;;;;;;4964827;28;20304;-78
2021/01/25 11:44:04;;;;;;;0.70;0.70;;;;;;;;;;4964371;28;20203;-78
2021/01/25 11:46:31;;;;;;;0.20;0.20;;;;;;;;;;4964405;28;20213;-78
2021/01/25 11:48:57;;;;;;;0.20;0.20;;;;;;;;;;4966098;28;20202;-79
2021/01/25 11:51:24;;;;;;;0.20;0.20;;;;;;;;;;4962896;28;20194;-78
2021/01/25 11:53:50;;;;;;;0.20;0.20;;;;;;;;;;4982632;28;20233;-75
2021/01/25 11:56:18;;;;;;;0.20;0.20;;;;;;;;;;4979190;28;20209;-77
2021/01/25 11:58:44;;;;;;;0.20;0.20;;;;;;;;;;4961533;28;20481;-78
2021/01/25 12:01:11;;;;;;;0.20;0.20;;;;;;;;;;4964409;28;20496;-78
2021/01/25 12:03:37;;;;;;;0.20;0.20;;;;;;;;;;4959074;28;20198;-76
2021/01/25 12:06:04;;;;;;;0.20;0.20;;;;;;;;;;4977329;28;20236;-75
2021/01/25 12:08:30;;;;;;;0.30;0.30;;;;;;;;;;4965090;28;20207;-76
2021/01/25 12:10:57;;;;;;;0.20;0.20;;;;;;;;;;4964706;28;20205;-76
2021/01/25 12:13:25;;;;;;;3.50;3.33;;;;;;;;;;4963465;28;20221;-77
2021/01/25 12:15:51;;;;;;;0.20;0.20;;;;;;;;;;4982146;28;20217;-77
2021/01/25 12:18:17;;;;;;;0.20;0.20;;;;;;;;;;4962841;28;20502;-78
2021/01/25 12:20:44;;;;;;;0.20;0.20;;;;;;;;;;4962741;28;20719;-77
2021/01/25 12:23:11;;;;;;;0.20;0.20;;;;;;;;;;4966445;28;20428;-76
2021/01/25 12:25:37;;;;;;;0.20;0.20;;;;;;;;;;4967437;28;20205;-78
2021/01/25 12:28:04;;;;;;;0.20;0.20;;;;;;;;;;4982958;28;20264;-76
2021/01/25 12:30:31;;;;;;;0.37;0.37;;;;;;;;;;4968101;28;20221;-76
2021/01/25 12:32:58;;;;;;;0.20;0.20;;;;;;;;;;4965254;28;20285;-76
2021/01/25 12:35:25;;;;;;;0.20;0.20;;;;;;;;;;4968096;28;20230;-76
2021/01/25 12:37:53;;;;;;;0.20;0.20;;;;;;;;;;4968146;28;20333;-76
2021/01/25 12:40:20;;;;;;;0.20;0.20;;;;;;;;;;4967530;28;20550;-77
2021/01/25 12:42:47;;;;;;;0.20;0.20;;;;;;;;;;4962954;28;20283;-74
2021/01/25 12:45:14;;;;;;;0.20;0.20;;;;;;;;;;4967762;28;20368;-79
2021/01/25 12:47:42;;;;;;;0.20;0.20;;;;;;;;;;4984042;28;20493;-77
2021/01/25 12:50:08;;;;;;;0.20;0.20;;;;;;;;;;4985040;28;20214;-78
2021/01/25 12:52:35;;;;;;;0.20;0.20;;;;;;;;;;4984192;28;20199;-79
2021/01/25 12:55:08;;;;;;;0.20;0.20;;;;;;;;;;4967192;28;20198;-79
2021/01/25 12:57:35;;;;;;;0.40;0.40;;;;;;;;;;5000832;28;20203;-78
2021/01/25 13:00:01;;;;;;;0.20;0.20;;;;;;;;;;4969262;28;20259;-78
2021/01/25 13:02:28;;;;;;;0.20;0.20;;;;;;;;;;4964992;28;20494;-78
2021/01/25 13:04:55;;;;;;;0.20;0.20;;;;;;;;;;4966078;28;20248;-77
2021/01/25 13:07:22;;;;;;;0.20;0.20;;;;;;;;;;4971903;28;20203;-79
2021/01/25 13:09:48;;;;;;;0.20;0.20;;;;;;;;;;4971410;28;20210;-73
2021/01/25 13:12:15;;;;;;;0.20;0.20;;;;;;;;;;4984116;28;20218;-78
2021/01/25 13:14:41;;;;;;;0.20;0.20;;;;;;;;;;4966924;28;20382;-79
2021/01/25 13:17:08;;;;;;;0.20;0.20;;;;;;;;;;4963998;28;20210;-78
2021/01/25 13:19:34;;;;;;;0.20;0.20;;;;;;;;;;4966918;28;20213;-78
2021/01/25 13:22:02;;;;;;;0.27;0.27;;;;;;;;;;4965357;28;20293;-77
2021/01/25 13:24:28;;;;;;;0.23;0.23;;;;;;;;;;4969919;28;20214;-78
2021/01/25 13:26:55;;;;;;;0.20;0.20;;;;;;;;;;4969525;28;20420;-78
2021/01/25 13:29:21;;;;;;;0.30;0.30;;;;;;;;;;4965867;28;20229;-78
2021/01/25 13:31:48;;;;;;;0.20;0.20;;;;;;;;;;4980535;28;20541;-75
2021/01/25 13:34:14;;;;;;;0.20;0.20;;;;;;;;;;4983629;28;20245;-77
2021/01/25 13:36:41;;;;;;;0.40;0.40;;;;;;;;;;4963276;28;20477;-78
2021/01/25 13:39:08;;;;;;;0.20;0.20;;;;;;;;;;4973372;28;20204;-76
2021/01/25 13:41:35;;;;;;;0.20;0.20;;;;;;;;;;4973148;28;20569;-76
2021/01/25 13:44:02;;;;;;;0.20;0.20;;;;;;;;;;4963935;28;20202;-74
2021/01/25 13:46:29;;;;;;;0.30;0.30;;;;;;;;;;4961143;28;20486;-75
2021/01/25 13:48:55;;;;;;;0.20;0.20;;;;;;;;;;4965272;28;20228;-75
2021/01/25 13:51:22;;;;;;;0.20;0.20;;;;;;;;;;4967352;28;20213;-74
2021/01/25 13:53:48;;;;;;;0.20;0.20;;;;;;;;;;4963714;28;20459;-76
2021/01/25 13:56:16;;;;;;;0.20;0.20;;;;;;;;;;4980261;28;20197;-75
2021/01/25 13:58:42;;;;;;;0.20;0.20;;;;;;;;;;4965602;28;20206;-76
2021/01/25 14:01:09;;;;;;;0.20;0.20;;;;;;;;;;4960234;28;20230;-75
2021/01/25 14:03:36;;;;;;;0.20;0.20;;;;;;;;;;4983157;28;20212;-76
2021/01/25 14:06:02;;;;;;;0.20;0.20;;;;;;;;;;4981203;28;20448;-76
2021/01/25 14:08:29;;;;;;;0.20;0.20;;;;;;;;;;4984934;28;20218;-76
2021/01/25 14:10:55;;;;;;;0.20;0.20;;;;;;;;;;4963683;28;20195;-75
2021/01/25 14:13:22;;;;;;;0.20;0.20;;;;;;;;;;4982513;28;20305;-77
2021/01/25 14:15:49;;;;;;;0.27;0.27;;;;;;;;;;4964051;28;20198;-75
2021/01/25 14:18:16;;;;;;;0.20;0.20;;;;;;;;;;4963443;28;20213;-77
2021/01/25 14:20:42;;;;;;;0.20;0.20;;;;;;;;;;4981256;28;20234;-76
2021/01/25 14:23:09;;;;;;;0.20;0.20;;;;;;;;;;4979197;28;20537;-75
2021/01/25 14:25:35;;;;;;;0.20;0.20;;;;;;;;;;4967178;28;20209;-76
2021/01/25 14:28:02;;;;;;;0.20;0.20;;;;;;;;;;4963263;28;20201;-76
2021/01/25 14:30:30;;;;;;;0.20;0.20;;;;;;;;;;4977637;28;20493;-75
2021/01/25 14:32:57;;;;;;;0.20;0.20;;;;;;;;;;4983785;28;20274;-75
2021/01/25 14:35:24;;;;;;;0.20;0.20;;;;;;;;;;4961824;28;20209;-78
2021/01/25 14:37:50;;;;;;;0.20;0.20;;;;;;;;;;4963986;28;20206;-75
2021/01/25 14:40:18;;;;;;;0.20;0.20;;;;;;;;;;4985219;28;20285;-77
2021/01/25 14:42:45;;;;;;;0.20;0.20;;;;;;;;;;5005260;28;20206;-76